Portada
METAR-TAF:

METAR-TAF

Aeroports :

Djibouti, Djibouti

latitud: 11-33N, longitud: 043-10E, altitud: 49 m

Observació

L'informe es va fer fa 1 hora i 6 minuts, a les 07:00 UTC
Vent 16 kt del Nord-Oest
Temperatura 41°C
Humitat 38%
Pressió 1003 hPa
Visibilitat: 8000 m
calitja

METAR: HDAM 200700Z 31016KT 8000 HZ 41/24 Q1003

Hora: 11:06 (08:06 UTC)

Pronòstic

L'informe es va fer fa 3 hores i 6 minuts, a les 05:00 UTC
Pronòstic vàlid del 20 a les 06 UTC al 21 a les 06 UTC
Vent 10 kt del Oest amb ràfegues de 15 kt
Visibilitat: 8000 m
Núvols disperses a una alçada de 13300 ft
torb alta de pols
Evolucionant progressivament
l' 20 a les 15 UTC al 20 a les 18 UTC
Vent 10 kt del Est
Escasses núvols a una alçada de 13300 ft
Evolucionant progressivament
l' 21 a les 00 UTC al 21 a les 06 UTC
Vent 5 kt amb direcció variable
Núvols disperses a una alçada de 13300 ft

TAF: HDAM 200500Z 2006/2106 27010G15KT 8000 BLDU SCT133 BECMG 2015/2018 08010KT FEW133 BECMG 2100/2106 VRB05KT SCT133

Observacions i pronòstics meteorològics de més de 4000 aeroports (METAR i TAF).

Les estacions disponibles són els punts grocs i vermells al mapa.

Posi el ratolí al punt desitjat per veure el nom de l'estació.

Feu clic per veure les observacions i els pronòstics meteorològics.

Per canviar el mapa: feu clic els botons verds amb una creu de color negre per apropar; al botó verd amb un guió per allunyar la imatge; o en les fletxes verdes per a mapes adjacents.


METAR-TAF: